Time;durP1;ratioP1;P1;durP2;ratioP2;P2;SDS_P1;SDS_P2;PMS_P1;PMS_P2;Temp;Humidity;BMP_temperature;BMP_pressure;BME280_temperature;BME280_humidity;BME280_pressure;Samples;Min_cycle;Max_cycle;Signal;HPM_P1;HPM_P2
2022/06/23 00:00:39;;;;;;;12.70;6.40;;;;;;;13.75;63.62;98363.23;433360;1270;108932;-44
2022/06/23 00:10:48;;;;;;;17.90;6.70;;;;;;;13.67;63.90;98364.92;433329;1269;97906;-45
2022/06/23 00:20:55;;;;;;;16.80;6.90;;;;;;;13.55;64.06;98364.54;433183;1268;111350;-42
2022/06/23 00:31:01;;;;;;;9.40;5.20;;;;;;;13.44;64.23;98369.23;433262;1269;107794;-43
2022/06/23 00:41:14;;;;;;;10.70;4.30;;;;;;;13.51;64.70;98370.45;433104;1269;97469;-41
2022/06/23 00:51:23;;;;;;;8.10;4.90;;;;;;;13.68;64.95;98375.23;433222;1269;108898;-43
2022/06/23 01:01:32;;;;;;;11.00;5.90;;;;;;;13.66;64.94;98372.89;433339;1269;96626;-43
2022/06/23 01:11:41;;;;;;;9.20;5.10;;;;;;;13.40;64.75;98371.01;433515;1258;110956;-42
2022/06/23 01:21:46;;;;;;;;;;;;;;;13.11;64.81;98372.70;432553;1271;107749;-42
2022/06/23 01:31:54;;;;;;;13.70;5.00;;;;;;;12.97;65.24;98375.00;432373;1271;97505;-41
2022/06/23 01:42:04;;;;;;;19.90;7.70;;;;;;;12.96;65.53;98375.20;432602;1270;111207;-42
2022/06/23 02:02:21;;;;;;;18.60;9.90;;;;;;;12.65;65.88;98391.65;432555;1271;96849;-42
2022/06/23 02:22:30;;;;;;;15.40;8.40;;;;;;;12.71;66.74;98394.22;432602;1271;97925;-43
2022/06/23 02:32:40;;;;;;;15.50;9.30;;;;;;;12.83;66.77;98401.95;432447;1273;111028;-44
2022/06/23 02:42:48;;;;;;;19.60;9.60;;;;;;;12.92;67.04;98412.79;432544;1271;108848;-41
2022/06/23 02:53:04;;;;;;;20.80;12.00;;;;;;;12.95;67.18;98416.44;432667;1271;97513;-42
2022/06/23 03:03:06;;;;;;;18.60;10.00;;;;;;;12.97;67.19;98425.80;432658;1271;109472;-42
2022/06/23 03:13:18;;;;;;;14.40;9.60;;;;;;;13.08;67.37;98431.81;432388;1271;108887;-41
2022/06/23 03:23:26;;;;;;;12.50;8.60;;;;;;;15.33;66.64;98442.15;432377;1273;97922;-43
2022/06/23 03:33:35;;;;;;;15.10;9.10;;;;;;;18.01;64.42;98448.62;432585;1271;108894;-42
2022/06/23 03:43:38;;;;;;;12.70;8.20;;;;;;;19.61;61.93;98452.70;432540;1271;97920;-41
2022/06/23 03:53:44;;;;;;;12.90;6.30;;;;;;;20.75;60.20;98450.23;432385;1271;112158;-43
2022/06/23 04:03:49;;;;;;;11.10;6.40;;;;;;;21.74;58.19;98463.12;432497;1271;107004;-42
2022/06/23 04:13:56;;;;;;;10.00;5.80;;;;;;;22.57;56.36;98467.81;432374;1271;97925;-44
2022/06/23 04:24:02;;;;;;;7.90;4.70;;;;;;;23.37;54.80;98477.11;432439;1273;111088;-44
2022/06/23 04:34:11;;;;;;;10.20;5.70;;;;;;;24.36;53.73;98490.41;432666;1271;108978;-42
2022/06/23 04:44:19;;;;;;;7.60;4.50;;;;;;;25.78;52.15;98501.70;432800;1271;97940;-47
2022/06/23 04:54:28;;;;;;;6.20;4.90;;;;;;;26.16;51.18;98512.41;432510;1271;108795;-42
2022/06/23 05:14:53;;;;;;;7.20;3.70;;;;;;;27.41;48.85;98531.20;432609;1271;111375;-43
2022/06/23 05:24:58;;;;;;;7.90;3.40;;;;;;;26.76;46.92;98535.58;432393;1271;108139;-45
2022/06/23 05:35:05;;;;;;;9.60;3.80;;;;;;;26.59;47.01;98547.25;432619;1271;97101;-44
2022/06/23 05:45:16;;;;;;;10.90;3.00;;;;;;;26.95;46.57;98553.16;432595;1271;111332;-44
2022/06/23 05:55:19;;;;;;;6.60;3.50;;;;;;;26.84;45.56;98564.52;432435;1269;109055;-42
2022/06/23 06:05:24;;;;;;;8.40;3.30;;;;;;;26.99;44.45;98580.27;432552;1271;97948;-45
2022/06/23 06:15:30;;;;;;;11.40;3.20;;;;;;;26.89;43.28;98589.24;432720;1271;108710;-42
2022/06/23 06:25:38;;;;;;;4.60;2.60;;;;;;;26.92;42.75;98599.44;432462;1271;98009;-42
2022/06/23 06:35:43;;;;;;;7.30;3.80;;;;;;;27.48;42.26;98601.38;432328;1273;110104;-42
2022/06/23 06:45:47;;;;;;;7.70;3.20;;;;;;;27.76;42.03;98607.30;432499;1271;97552;-42
2022/06/23 06:55:56;;;;;;;4.20;2.50;;;;;;;27.58;41.11;98605.98;432156;1273;97315;-42
2022/06/23 07:06:07;;;;;;;3.10;2.10;;;;;;;26.48;39.82;98607.42;432762;1271;110141;-44
2022/06/23 07:16:11;;;;;;;2.80;1.80;;;;;;;25.91;39.44;98616.43;432657;1271;108993;-44
2022/06/23 07:26:27;;;;;;;4.40;2.00;;;;;;;26.17;39.76;98621.06;432537;1271;97910;-45
2022/06/23 07:36:32;;;;;;;8.60;2.40;;;;;;;26.83;39.85;98630.52;432691;1271;110713;-43
2022/06/23 07:46:39;;;;;;;6.80;2.60;;;;;;;26.54;39.23;98636.88;432523;1271;109222;-42
2022/06/23 07:56:43;;;;;;;6.20;2.70;;;;;;;26.68;39.05;98647.61;432347;1273;98019;-42
2022/06/23 08:06:48;;;;;;;7.70;2.40;;;;;;;27.00;39.13;98645.59;432473;1273;111869;-42
2022/06/23 08:16:52;;;;;;;5.10;2.20;;;;;;;26.03;38.70;98654.70;432281;1272;108896;-44
2022/06/23 08:27:00;;;;;;;7.50;2.50;;;;;;;25.73;38.98;98666.19;432343;1273;97961;-41
2022/06/23 08:37:09;;;;;;;5.70;2.10;;;;;;;26.45;39.52;98657.47;432512;1273;108829;-43
2022/06/23 08:47:18;;;;;;;3.40;2.00;;;;;;;26.72;39.10;98665.58;432589;1271;108923;-43
2022/06/23 08:57:25;;;;;;;6.80;2.10;;;;;;;26.75;38.63;98660.63;432622;1271;97936;-42
2022/06/23 09:07:32;;;;;;;3.50;2.30;;;;;;;26.66;38.17;98663.11;432548;1271;111307;-42
2022/06/23 09:18:07;;;;;;;3.50;2.00;;;;;;;25.87;37.57;98675.14;432451;1271;108982;-45
2022/06/23 09:28:19;;;;;;;5.50;2.80;;;;;;;24.95;38.19;98678.17;432002;1273;97922;-42
2022/06/23 09:38:49;;;;;;;8.30;2.70;;;;;;;25.06;38.76;98680.65;432683;1271;108910;-41
2022/06/23 09:49:18;;;;;;;2.50;2.20;;;;;;;25.42;38.99;98680.80;432599;1271;96671;-41
2022/06/23 10:10:17;;;;;;;3.50;2.20;;;;;;;26.71;38.60;98677.55;432565;1271;108867;-41
2022/06/23 10:20:34;;;;;;;2.80;1.60;;;;;;;26.19;37.92;98676.20;432761;1271;96809;-42
2022/06/23 10:40:56;;;;;;;4.40;2.20;;;;;;;25.77;37.44;98675.31;432605;1271;108912;-41
2022/06/23 10:51:03;;;;;;;3.80;2.60;;;;;;;26.35;38.01;98666.15;432716;1271;97920;-43
2022/06/23 11:01:11;;;;;;;3.60;2.40;;;;;;;25.99;37.24;98665.63;432499;1271;108785;-45
2022/06/23 11:11:35;;;;;;;4.40;2.70;;;;;;;25.69;37.86;98659.97;432504;1270;97910;-44
2022/06/23 11:21:57;;;;;;;3.80;2.70;;;;;;;25.69;37.56;98653.25;432424;1272;111081;-42
2022/06/23 11:32:00;;;;;;;4.30;2.50;;;;;;;26.33;38.21;98650.02;432485;1271;109060;-41
2022/06/23 11:42:26;;;;;;;3.90;2.60;;;;;;;26.42;37.52;98644.37;432560;1271;97940;-41
2022/06/23 11:52:43;;;;;;;3.10;2.40;;;;;;;26.80;37.53;98630.73;432642;1271;110989;-41
2022/06/23 12:02:49;;;;;;;5.60;2.80;;;;;;;27.06;37.25;98626.49;432574;1271;108865;-45
2022/06/23 12:12:58;;;;;;;3.90;2.30;;;;;;;26.26;36.75;98627.82;432616;1271;97942;-41
2022/06/23 12:23:01;;;;;;;4.70;1.90;;;;;;;26.18;36.96;98627.32;432694;1270;109521;-40
2022/06/23 12:33:10;;;;;;;4.50;2.40;;;;;;;25.91;36.12;98636.38;432628;1271;97971;-43
2022/06/23 12:43:18;;;;;;;3.20;2.00;;;;;;;25.88;36.31;98630.25;432678;1271;112011;-43
2022/06/23 12:53:30;;;;;;;6.10;2.50;;;;;;;26.06;36.70;98625.33;432260;1273;107907;-42
2022/06/23 13:03:38;;;;;;;3.30;2.20;;;;;;;26.01;36.14;98626.92;432660;1271;96677;-43
2022/06/23 13:13:40;;;;;;;4.50;2.60;;;;;;;26.15;36.32;98625.42;432528;1271;109011;-40
2022/06/23 13:23:46;;;;;;;5.40;2.30;;;;;;;25.86;36.61;98628.69;432487;1271;97939;-44
2022/06/23 13:33:52;;;;;;;2.30;2.10;;;;;;;25.66;36.75;98620.27;432665;1271;111037;-41
2022/06/23 13:43:55;;;;;;;5.40;2.50;;;;;;;25.44;37.09;98615.59;432489;1271;108870;-44
2022/06/23 14:04:07;;;;;;;3.60;2.40;;;;;;;25.55;37.09;98611.25;432705;1271;110987;-41
2022/06/23 14:14:16;;;;;;;4.70;2.80;;;;;;;25.43;37.58;98603.19;432589;1270;107964;-41
2022/06/23 14:24:22;;;;;;;3.00;2.70;;;;;;;25.68;37.58;98599.77;432652;1271;97922;-42
2022/06/23 14:34:30;;;;;;;2.60;2.20;;;;;;;25.47;37.07;98602.25;432541;1271;111058;-44
2022/06/23 14:44:38;;;;;;;3.90;2.50;;;;;;;25.03;37.11;98597.83;432624;1272;107501;-42
2022/06/23 14:54:47;;;;;;;3.50;2.50;;;;;;;25.12;37.63;98597.34;432440;1273;98038;-42
2022/06/23 15:04:58;;;;;;;2.40;2.20;;;;;;;25.40;38.04;98594.64;432507;1271;111071;-41
2022/06/23 15:15:14;;;;;;;6.30;2.70;;;;;;;25.56;37.62;98584.42;432479;1273;108863;-42
2022/06/23 15:25:18;;;;;;;2.50;2.40;;;;;;;25.38;37.32;98581.02;432631;1271;97975;-41
2022/06/23 15:35:23;;;;;;;5.70;2.40;;;;;;;25.25;37.24;98577.05;432651;1271;109678;-41
2022/06/23 15:45:45;;;;;;;4.60;2.60;;;;;;;25.16;37.22;98575.07;432657;1271;98028;-42
2022/06/23 15:55:52;;;;;;;2.10;2.00;;;;;;;25.11;37.49;98567.22;432684;1271;97090;-43
2022/06/23 16:05:54;;;;;;;2.90;2.50;;;;;;;25.15;37.44;98565.83;432687;1271;111123;-44
2022/06/23 16:15:57;;;;;;;7.00;2.90;;;;;;;25.00;37.50;98564.45;432614;1269;108796;-42
2022/06/23 16:26:01;;;;;;;4.50;2.10;;;;;;;24.92;37.75;98567.81;432611;1271;97948;-42
2022/06/23 16:46:23;;;;;;;2.90;2.30;;;;;;;24.69;37.92;98556.61;432721;1271;108715;-42
2022/06/23 16:56:33;;;;;;;2.20;2.00;;;;;;;24.60;38.14;98559.10;432338;1272;97980;-42
2022/06/23 17:26:51;;;;;;;3.40;2.50;;;;;;;24.30;38.98;98559.06;432547;1271;98588;-40
2022/06/23 17:36:59;;;;;;;2.50;2.30;;;;;;;24.10;39.52;98563.21;432714;1271;110079;-43
2022/06/23 17:47:02;;;;;;;3.90;3.10;;;;;;;23.93;40.07;98567.10;432565;1271;108949;-41
2022/06/23 17:57:09;;;;;;;3.20;2.90;;;;;;;23.72;40.70;98572.09;432607;1271;97509;-41
2022/06/23 18:07:27;;;;;;;4.80;2.80;;;;;;;23.47;41.28;98575.09;432489;1271;111121;-42
2022/06/23 18:17:29;;;;;;;;;;;;;;;23.25;42.03;98583.49;432468;1272;107655;-42
2022/06/23 18:27:32;;;;;;;4.50;2.80;;;;;;;22.96;42.49;98584.57;432558;1271;98559;-42
2022/06/23 18:37:40;;;;;;;3.40;3.00;;;;;;;22.68;43.08;98589.40;432589;1271;98018;-43
2022/06/23 18:47:49;;;;;;;4.80;3.60;;;;;;;22.37;43.81;98594.23;432454;1273;108389;-42
2022/06/23 18:57:53;;;;;;;6.00;4.00;;;;;;;22.09;44.59;98596.26;432593;1271;98633;-41
2022/06/23 19:08:01;;;;;;;4.60;3.80;;;;;;;21.77;45.35;98601.66;432351;1271;97919;-42
2022/06/23 19:28:10;;;;;;;91.10;48.60;;;;;;;20.97;47.36;98624.52;432536;1271;97932;-43
2022/06/23 19:38:21;;;;;;;65.40;38.90;;;;;;;20.52;48.43;98632.61;432520;1271;97514;-43
2022/06/23 19:48:25;;;;;;;28.00;16.30;;;;;;;20.09;49.18;98632.09;432656;1271;108901;-43
2022/06/23 19:58:37;;;;;;;9.50;6.70;;;;;;;19.67;50.13;98627.89;432411;1271;98066;-43
2022/06/23 20:19:04;;;;;;;11.50;6.70;;;;;;;19.21;51.36;98626.36;432600;1271;97946;-44
2022/06/23 20:29:29;;;;;;;7.10;5.10;;;;;;;19.07;51.98;98627.21;432474;1271;97922;-46
2022/06/23 20:39:36;;;;;;;15.70;5.60;;;;;;;18.89;52.39;98626.00;432530;1271;109144;-40
2022/06/23 20:49:56;;;;;;;9.60;5.50;;;;;;;18.81;52.84;98621.91;432557;1273;98013;-43
2022/06/23 21:00:05;;;;;;;8.10;5.50;;;;;;;18.91;53.34;98623.09;432535;1271;111651;-41
2022/06/23 21:10:08;;;;;;;7.70;5.50;;;;;;;18.94;53.42;98618.94;432526;1271;108781;-45
2022/06/23 21:20:19;;;;;;;10.40;4.90;;;;;;;19.02;53.46;98620.14;432537;1271;97916;-42
2022/06/23 21:30:23;;;;;;;6.50;5.20;;;;;;;18.95;53.42;98620.70;432616;1271;111048;-43
2022/06/23 21:40:28;;;;;;;8.10;5.30;;;;;;;18.90;53.55;98617.36;432487;1271;97968;-42
2022/06/23 22:00:41;;;;;;;9.30;5.20;;;;;;;18.83;54.16;98612.25;432568;1271;110163;-43
2022/06/23 22:10:47;;;;;;;8.00;5.40;;;;;;;18.76;54.44;98614.20;432496;1271;108927;-42
2022/06/23 22:20:58;;;;;;;5.90;4.40;;;;;;;18.83;54.59;98611.39;432438;1271;97935;-43
2022/06/23 22:31:02;;;;;;;9.00;5.50;;;;;;;18.90;54.61;98609.81;432603;1271;111057;-41
2022/06/23 22:51:13;;;;;;;8.70;4.80;;;;;;;18.72;54.64;98609.14;432518;1271;97977;-42
2022/06/23 23:01:54;;;;;;;8.70;6.50;;;;;;;18.56;54.84;98601.19;432523;1271;111263;-46
2022/06/23 23:11:58;;;;;;;10.80;6.30;;;;;;;18.38;55.02;98603.38;432537;1271;108968;-42
2022/06/23 23:22:02;;;;;;;11.70;6.60;;;;;;;18.05;55.45;98611.86;432241;1273;96628;-43
2022/06/23 23:42:15;;;;;;;14.10;8.10;;;;;;;17.40;56.50;98622.89;432583;1271;108721;-42
2022/06/23 23:52:20;;;;;;;19.90;7.90;;;;;;;17.00;57.26;98620.85;432614;1271;97922;-46
